createdAt,value
2019-05-01T00:01:37.436Z,45.24
2019-05-01T00:04:09.978Z,45.27
2019-05-01T00:06:44.556Z,45.33
2019-05-01T00:09:15.134Z,45.39
2019-05-01T00:11:45.494Z,45.45
2019-05-01T00:14:16.133Z,45.50
2019-05-01T00:16:46.442Z,45.55
2019-05-01T00:19:16.829Z,45.60
2019-05-01T00:21:47.129Z,45.66
2019-05-01T00:24:17.341Z,45.70
2019-05-01T00:26:47.621Z,45.77
2019-05-01T00:29:18.110Z,45.80
2019-05-01T00:31:48.464Z,45.85
2019-05-01T00:34:18.817Z,45.90
2019-05-01T00:36:49.060Z,45.92
2019-05-01T00:39:19.818Z,45.97
2019-05-01T00:41:50.232Z,46.03
2019-05-01T00:44:20.818Z,46.08
2019-05-01T00:46:51.649Z,46.14
2019-05-01T00:49:21.909Z,46.19
2019-05-01T00:51:52.209Z,46.23
2019-05-01T00:54:22.823Z,46.27
2019-05-01T00:56:57.655Z,46.33
2019-05-01T00:59:46.941Z,46.38
2019-05-01T01:02:33.622Z,46.42
2019-05-01T01:05:04.578Z,46.48
2019-05-01T01:07:35.591Z,46.54
2019-05-01T01:10:08.899Z,46.61
2019-05-01T01:12:39.208Z,46.67
2019-05-01T01:15:09.804Z,46.70
2019-05-01T01:17:40.225Z,46.76
2019-05-01T01:20:10.809Z,46.83
2019-05-01T01:22:41.655Z,46.88
2019-05-01T01:25:12.443Z,46.93
2019-05-01T01:27:43.270Z,46.99
2019-05-01T01:30:13.806Z,47.08
2019-05-01T01:32:44.021Z,47.11
2019-05-01T01:35:15.319Z,47.18
2019-05-01T01:37:45.615Z,47.22
2019-05-01T01:40:16.891Z,47.30
2019-05-01T01:42:49.880Z,47.36
2019-05-01T01:45:33.720Z,47.42
2019-05-01T01:48:15.527Z,47.49
2019-05-01T01:50:46.962Z,47.54
2019-05-01T01:53:21.729Z,47.61
2019-05-01T01:55:52.853Z,47.67
2019-05-01T01:58:25.158Z,47.73
2019-05-01T02:01:09.580Z,47.79
2019-05-01T02:03:43.208Z,47.86
2019-05-01T02:06:14.547Z,47.92
2019-05-01T02:08:55.932Z,47.97
2019-05-01T02:11:17.432Z,48.02
2019-05-01T02:13:48.150Z,48.10
2019-05-01T02:16:18.931Z,48.16
2019-05-01T02:18:49.581Z,48.22
2019-05-01T02:21:19.950Z,48.26
2019-05-01T02:23:50.583Z,48.32
2019-05-01T02:26:23.340Z,48.38
2019-05-01T02:29:10.292Z,48.43
2019-05-01T02:31:42.713Z,48.48
2019-05-01T02:34:13.594Z,48.55
2019-05-01T02:36:47.326Z,48.60
2019-05-01T02:39:21.977Z,48.68
2019-05-01T02:41:55.165Z,48.74
2019-05-01T02:44:28.585Z,48.79
2019-05-01T02:47:03.755Z,48.87
2019-05-01T02:49:52.344Z,48.93
2019-05-01T02:52:25.827Z,48.98
2019-05-01T02:55:01.804Z,49.05
2019-05-01T02:57:35.242Z,49.11
2019-05-01T03:00:07.458Z,49.17
2019-05-01T03:02:40.832Z,49.24
2019-05-01T03:05:12.170Z,49.31
2019-05-01T03:07:44.373Z,49.38
2019-05-01T03:10:15.361Z,49.43
2019-05-01T03:12:48.545Z,49.49
2019-05-01T03:15:20.822Z,49.56
2019-05-01T03:17:54.672Z,49.63
2019-05-01T03:20:42.479Z,49.73
2019-05-01T03:23:21.554Z,49.81
2019-05-01T03:25:52.244Z,49.91
2019-05-01T03:28:23.042Z,49.99
2019-05-01T03:30:53.334Z,50.06
2019-05-01T03:33:23.930Z,50.11
2019-05-01T03:35:55.738Z,50.14
2019-05-01T03:38:27.054Z,50.18
2019-05-01T03:40:57.900Z,50.22
2019-05-01T03:43:29.404Z,50.27
2019-05-01T03:46:00.522Z,50.31
2019-05-01T03:48:31.697Z,50.34
2019-05-01T03:51:03.038Z,50.41
2019-05-01T03:53:34.360Z,50.45
2019-05-01T03:56:05.355Z,50.48
2019-05-01T03:58:35.915Z,50.53
2019-05-01T04:01:24.177Z,50.55
2019-05-01T04:03:56.397Z,50.61
2019-05-01T04:06:27.566Z,50.63
2019-05-01T04:08:59.082Z,50.69
2019-05-01T04:11:29.659Z,50.71
2019-05-01T04:14:00.131Z,50.76
2019-05-01T04:16:31.601Z,50.77
2019-05-01T04:19:04.441Z,50.79
2019-05-01T04:21:42.596Z,50.84
2019-05-01T04:24:12.830Z,50.86
2019-05-01T04:26:44.347Z,50.85
2019-05-01T04:29:14.861Z,50.88
2019-05-01T04:31:53.849Z,50.87
2019-05-01T04:34:35.313Z,50.88
2019-05-01T04:37:07.790Z,50.89
2019-05-01T04:39:38.091Z,50.88
2019-05-01T04:42:09.367Z,50.89
2019-05-01T04:44:41.577Z,50.95
2019-05-01T04:47:13.737Z,50.95
2019-05-01T04:49:45.448Z,50.95
2019-05-01T04:52:16.390Z,50.96
2019-05-01T04:54:47.549Z,50.90
2019-05-01T04:57:18.478Z,50.83
2019-05-01T04:59:49.198Z,50.78
2019-05-01T05:02:24.164Z,50.73
2019-05-01T05:04:55.124Z,50.70
2019-05-01T05:07:26.081Z,50.60
2019-05-01T05:09:57.834Z,50.56
2019-05-01T05:12:36.190Z,50.48
2019-05-01T05:15:26.648Z,50.38
2019-05-01T05:17:56.930Z,50.32
2019-05-01T05:20:28.110Z,50.30
2019-05-01T05:22:59.655Z,50.20
2019-05-01T05:25:30.846Z,50.12
2019-05-01T05:28:01.690Z,49.93
2019-05-01T05:30:34.113Z,49.81
2019-05-01T05:33:18.122Z,49.69
2019-05-01T05:35:43.564Z,49.53
2019-05-01T05:38:21.633Z,49.36
2019-05-01T05:40:52.996Z,49.19
2019-05-01T05:43:24.037Z,49.04
2019-05-01T05:45:54.307Z,48.88
2019-05-01T05:48:24.812Z,48.78
2019-05-01T05:50:58.983Z,48.64
2019-05-01T05:53:38.991Z,48.51
2019-05-01T05:56:15.789Z,48.40
2019-05-01T05:58:55.800Z,48.22
2019-05-01T06:01:45.517Z,48.02
2019-05-01T06:04:20.449Z,47.82
2019-05-01T06:06:57.232Z,47.61
2019-05-01T06:09:34.359Z,47.44
2019-05-01T06:12:16.108Z,47.25
2019-05-01T06:14:52.213Z,47.10
2019-05-01T06:17:28.584Z,46.90
2019-05-01T06:20:01.632Z,46.78
2019-05-01T06:22:34.744Z,46.60
2019-05-01T06:25:21.442Z,46.44
2019-05-01T06:27:44.828Z,46.28
2019-05-01T06:30:15.757Z,46.06
2019-05-01T06:32:47.679Z,45.86
2019-05-01T06:35:18.484Z,45.66
2019-05-01T06:38:05.943Z,45.42
2019-05-01T06:40:38.711Z,45.11
2019-05-01T06:43:13.626Z,44.69
2019-05-01T06:45:46.839Z,44.30
2019-05-01T06:48:23.330Z,43.89
2019-05-01T06:50:55.954Z,43.52
2019-05-01T06:53:26.803Z,43.10
2019-05-01T06:55:57.459Z,42.81
2019-05-01T06:58:28.547Z,42.49
2019-05-01T07:00:58.926Z,42.09
2019-05-01T07:03:29.810Z,41.71
2019-05-01T07:06:13.629Z,41.43
2019-05-01T07:08:34.178Z,41.18
2019-05-01T07:11:05.060Z,40.89
2019-05-01T07:13:40.123Z,40.55
2019-05-01T07:16:09.335Z,40.21
2019-05-01T07:18:40.206Z,39.90
2019-05-01T07:21:11.544Z,39.48
2019-05-01T07:23:42.446Z,39.06
2019-05-01T07:26:13.834Z,38.64
2019-05-01T07:28:47.338Z,38.32
2019-05-01T07:31:18.080Z,37.79
2019-05-01T07:33:51.242Z,37.26
2019-05-01T07:36:21.222Z,36.79
2019-05-01T07:38:52.125Z,36.18
2019-05-01T07:41:22.869Z,35.57
2019-05-01T07:44:04.730Z,35.11
2019-05-01T07:46:54.161Z,34.61
2019-05-01T07:49:27.880Z,34.26
2019-05-01T07:51:58.511Z,33.92
2019-05-01T07:54:30.919Z,33.61
2019-05-01T07:57:03.277Z,33.35
2019-05-01T07:59:33.920Z,33.10
2019-05-01T08:02:05.841Z,32.91
2019-05-01T08:04:36.745Z,32.73
2019-05-01T08:07:10.012Z,32.51
2019-05-01T08:09:40.655Z,32.32
2019-05-01T08:12:10.959Z,32.03
2019-05-01T08:14:41.179Z,31.71
2019-05-01T08:17:17.942Z,31.55
2019-05-01T08:19:47.031Z,31.33
2019-05-01T08:22:19.329Z,31.03
2019-05-01T08:24:53.718Z,30.69
2019-05-01T08:27:32.812Z,30.38
2019-05-01T08:30:12.770Z,30.10
2019-05-01T08:32:45.898Z,29.80
2019-05-01T08:35:18.656Z,29.50
2019-05-01T08:37:48.881Z,29.17
2019-05-01T08:40:20.533Z,28.91
2019-05-01T08:42:52.435Z,28.62
2019-05-01T08:45:35.713Z,28.27
2019-05-01T08:48:20.790Z,27.97
2019-05-01T08:50:54.650Z,27.67
2019-05-01T08:53:23.405Z,27.32
2019-05-01T08:55:54.165Z,27.07
2019-05-01T08:58:24.805Z,26.75
2019-05-01T09:00:55.097Z,26.50
2019-05-01T09:03:25.328Z,26.18
2019-05-01T09:05:57.467Z,25.95
2019-05-01T09:08:32.033Z,25.65
2019-05-01T09:11:02.299Z,25.37
2019-05-01T09:13:33.092Z,25.12
2019-05-01T09:16:03.381Z,24.88
2019-05-01T09:18:33.946Z,24.61
2019-05-01T09:21:05.131Z,24.38
2019-05-01T09:23:35.908Z,24.15
2019-05-01T09:26:24.049Z,23.95
2019-05-01T09:29:16.019Z,23.77
2019-05-01T09:31:44.957Z,23.57
2019-05-01T09:34:19.205Z,23.34
2019-05-01T09:36:48.038Z,23.22
2019-05-01T09:39:20.744Z,23.11
2019-05-01T09:41:51.029Z,22.98
2019-05-01T09:44:21.678Z,22.93
2019-05-01T09:46:52.040Z,22.86
2019-05-01T09:49:22.997Z,22.83
2019-05-01T09:51:56.193Z,22.79
2019-05-01T09:54:29.210Z,22.76
2019-05-01T09:57:00.076Z,22.74
2019-05-01T09:59:30.491Z,22.73
2019-05-01T10:02:02.993Z,22.74
2019-05-01T10:04:34.191Z,22.74
2019-05-01T10:07:06.291Z,22.71
2019-05-01T10:09:36.891Z,22.70
2019-05-01T10:12:11.534Z,22.67
2019-05-01T10:14:40.198Z,22.62
2019-05-01T10:17:13.412Z,22.57
2019-05-01T10:19:43.333Z,22.54
2019-05-01T10:22:13.682Z,22.50
2019-05-01T10:24:43.889Z,22.46
2019-05-01T10:27:17.319Z,22.42
2019-05-01T10:29:52.021Z,22.39
2019-05-01T10:32:24.256Z,22.33
2019-05-01T10:35:00.186Z,22.30
2019-05-01T10:37:33.641Z,22.28
2019-05-01T10:40:06.154Z,22.27
2019-05-01T10:42:37.342Z,22.29
2019-05-01T10:45:08.421Z,22.31
2019-05-01T10:47:38.642Z,22.33
2019-05-01T10:50:10.592Z,22.38
2019-05-01T10:52:40.907Z,22.40
2019-05-01T10:55:11.832Z,22.42
2019-05-01T10:57:42.583Z,22.40
2019-05-01T11:00:14.897Z,22.41
2019-05-01T11:02:45.464Z,22.48
2019-05-01T11:05:16.047Z,22.52
2019-05-01T11:07:46.628Z,22.55
2019-05-01T11:10:16.937Z,22.55
2019-05-01T11:12:47.186Z,22.57
2019-05-01T11:15:18.840Z,22.57
2019-05-01T11:17:49.124Z,22.57
2019-05-01T11:20:19.355Z,22.58
2019-05-01T11:22:49.608Z,22.58
2019-05-01T11:25:20.920Z,22.59
2019-05-01T11:27:51.222Z,22.58
2019-05-01T11:30:21.528Z,22.58
2019-05-01T11:33:02.455Z,22.58
2019-05-01T11:35:47.587Z,22.57
2019-05-01T11:38:34.893Z,22.55
2019-05-01T11:41:13.609Z,22.53
2019-05-01T11:43:44.205Z,22.54
2019-05-01T11:46:14.913Z,22.54
2019-05-01T11:48:45.271Z,22.52
2019-05-01T11:51:15.942Z,22.51
2019-05-01T11:53:46.740Z,22.51
2019-05-01T11:56:17.514Z,22.50
2019-05-01T11:58:47.761Z,22.49
2019-05-01T12:01:21.182Z,22.46
2019-05-01T12:03:51.397Z,22.47
2019-05-01T12:06:23.216Z,22.47
2019-05-01T12:08:55.057Z,22.45
2019-05-01T12:11:28.534Z,22.47
2019-05-01T12:13:59.199Z,22.48
2019-05-01T12:16:47.926Z,22.50
2019-05-01T12:19:18.688Z,22.52
2019-05-01T12:21:48.935Z,22.55
2019-05-01T12:24:19.143Z,22.57
2019-05-01T12:26:49.511Z,22.58
2019-05-01T12:29:19.722Z,22.58
2019-05-01T12:31:49.935Z,22.58
2019-05-01T12:34:20.127Z,22.59
2019-05-01T12:36:52.066Z,22.58
2019-05-01T12:39:22.368Z,22.58
2019-05-01T12:41:56.937Z,22.58
2019-05-01T12:44:27.137Z,22.59
2019-05-01T12:47:05.153Z,22.59
2019-05-01T12:49:35.814Z,22.59
2019-05-01T12:52:10.982Z,22.61
2019-05-01T12:54:51.842Z,22.62
2019-05-01T12:57:20.877Z,22.62
2019-05-01T12:59:51.348Z,22.65
2019-05-01T13:02:21.549Z,22.64
2019-05-01T13:04:51.785Z,22.62
2019-05-01T13:07:22.560Z,22.63
2019-05-01T13:09:53.382Z,22.63
2019-05-01T13:12:25.624Z,22.66
2019-05-01T13:14:55.951Z,22.69
2019-05-01T13:17:26.541Z,22.70
2019-05-01T13:19:57.170Z,22.71
2019-05-01T13:22:27.835Z,22.71
2019-05-01T13:24:58.496Z,22.71
2019-05-01T13:27:39.631Z,22.71
2019-05-01T13:30:28.111Z,22.73
2019-05-01T13:32:58.462Z,22.73
2019-05-01T13:35:30.570Z,22.72
2019-05-01T13:38:00.619Z,22.71
2019-05-01T13:40:31.395Z,22.69
2019-05-01T13:43:01.669Z,22.69
2019-05-01T13:45:32.317Z,22.69
2019-05-01T13:48:02.950Z,22.66
2019-05-01T13:50:35.051Z,22.66
2019-05-01T13:53:06.242Z,22.64
2019-05-01T13:55:36.548Z,22.66
2019-05-01T13:58:07.181Z,22.64
2019-05-01T14:00:37.729Z,22.65
2019-05-01T14:03:08.315Z,22.63
2019-05-01T14:05:39.045Z,22.63
2019-05-01T14:08:09.706Z,22.62
2019-05-01T14:10:39.965Z,22.62
2019-05-01T14:13:10.231Z,22.59
2019-05-01T14:15:40.445Z,22.58
2019-05-01T14:18:10.680Z,22.57
2019-05-01T14:20:42.529Z,22.55
2019-05-01T14:23:17.446Z,22.54
2019-05-01T14:26:08.515Z,22.55
2019-05-01T14:28:39.146Z,22.51
2019-05-01T14:31:09.787Z,22.53
2019-05-01T14:33:40.540Z,22.52
2019-05-01T14:36:11.123Z,22.53
2019-05-01T14:38:41.417Z,22.53
2019-05-01T14:41:11.655Z,22.52
2019-05-01T14:43:42.236Z,22.50
2019-05-01T14:46:13.945Z,22.52
2019-05-01T14:48:44.601Z,22.50
2019-05-01T14:51:16.192Z,22.50
2019-05-01T14:53:46.595Z,22.53
2019-05-01T14:56:16.891Z,22.48
2019-05-01T14:58:47.194Z,22.47
2019-05-01T15:01:17.419Z,22.45
2019-05-01T15:03:47.642Z,22.41
2019-05-01T15:06:18.228Z,22.43
2019-05-01T15:08:48.593Z,22.39
2019-05-01T15:11:18.814Z,22.38
2019-05-01T15:13:50.682Z,22.36
2019-05-01T15:16:21.020Z,22.33
2019-05-01T15:19:10.729Z,22.32
2019-05-01T15:21:41.361Z,22.32
2019-05-01T15:24:11.635Z,22.30
2019-05-01T15:26:42.258Z,22.27
2019-05-01T15:29:12.957Z,22.25
2019-05-01T15:31:43.729Z,22.24
2019-05-01T15:34:14.431Z,22.21
2019-05-01T15:36:44.738Z,22.20
2019-05-01T15:39:19.136Z,22.17
2019-05-01T15:41:50.550Z,22.16
2019-05-01T15:44:22.798Z,22.15
2019-05-01T15:46:53.437Z,22.13
2019-05-01T15:49:24.310Z,22.11
2019-05-01T15:51:54.610Z,22.10
2019-05-01T15:54:24.897Z,22.10
2019-05-01T15:56:55.198Z,22.09
2019-05-01T15:59:25.512Z,22.06
2019-05-01T16:01:55.718Z,22.06
2019-05-01T16:04:26.285Z,22.02
2019-05-01T16:06:56.916Z,22.05
2019-05-01T16:09:27.837Z,22.04
2019-05-01T16:12:06.994Z,22.01
2019-05-01T16:14:37.616Z,22.03
2019-05-01T16:17:07.933Z,21.99
2019-05-01T16:19:38.318Z,21.99
2019-05-01T16:22:08.708Z,21.97
2019-05-01T16:24:38.982Z,21.97
2019-05-01T16:27:09.148Z,21.98
2019-05-01T16:29:40.097Z,21.99
2019-05-01T16:32:11.524Z,22.00
2019-05-01T16:34:42.232Z,22.01
2019-05-01T16:37:12.513Z,22.04
2019-05-01T16:39:44.389Z,22.06
2019-05-01T16:42:14.947Z,22.07
2019-05-01T16:44:45.234Z,22.11
2019-05-01T16:47:17.065Z,22.11
2019-05-01T16:49:47.826Z,22.16
2019-05-01T16:52:20.034Z,22.16
2019-05-01T16:54:59.069Z,22.19
2019-05-01T16:57:22.724Z,22.21
2019-05-01T16:59:53.405Z,22.22
2019-05-01T17:02:41.099Z,22.25
2019-05-01T17:05:30.332Z,22.27
2019-05-01T17:08:02.253Z,22.28
2019-05-01T17:10:34.742Z,22.32
2019-05-01T17:13:07.624Z,22.36
2019-05-01T17:15:39.579Z,22.38
2019-05-01T17:18:10.439Z,22.41
2019-05-01T17:20:40.761Z,22.42
2019-05-01T17:23:10.964Z,22.44
2019-05-01T17:25:41.331Z,22.46
2019-05-01T17:28:11.753Z,22.49
2019-05-01T17:30:48.060Z,22.49
2019-05-01T17:33:20.684Z,22.51
2019-05-01T17:35:50.860Z,22.53
2019-05-01T17:38:21.293Z,22.56
2019-05-01T17:40:52.494Z,22.56
2019-05-01T17:43:23.417Z,22.58
2019-05-01T17:45:53.750Z,22.61
2019-05-01T17:48:23.986Z,22.63
2019-05-01T17:50:55.152Z,22.66
2019-05-01T17:53:26.118Z,22.68
2019-05-01T17:55:56.378Z,22.71
2019-05-01T17:58:26.583Z,22.73
2019-05-01T18:00:58.442Z,22.76
2019-05-01T18:03:33.076Z,22.82
2019-05-01T18:06:16.735Z,22.82
2019-05-01T18:08:47.003Z,22.86
2019-05-01T18:11:17.648Z,22.90
2019-05-01T18:13:48.418Z,22.91
2019-05-01T18:16:18.808Z,22.97
2019-05-01T18:18:50.432Z,23.00
2019-05-01T18:21:21.441Z,23.01
2019-05-01T18:23:53.734Z,23.06
2019-05-01T18:26:24.444Z,23.09
2019-05-01T18:29:12.699Z,23.13
2019-05-01T18:31:43.024Z,23.17
2019-05-01T18:34:13.326Z,23.21
2019-05-01T18:36:54.986Z,23.25
2019-05-01T18:39:32.470Z,23.29
2019-05-01T18:42:07.687Z,23.31
2019-05-01T18:44:37.978Z,23.35
2019-05-01T18:47:08.664Z,23.40
2019-05-01T18:49:38.948Z,23.45
2019-05-01T18:52:10.212Z,23.49
2019-05-01T18:54:40.508Z,23.54
2019-05-01T18:57:11.122Z,23.58
2019-05-01T18:59:41.778Z,23.62
2019-05-01T19:02:12.272Z,23.67
2019-05-01T19:04:42.477Z,23.73
2019-05-01T19:07:13.067Z,23.79
2019-05-01T19:09:43.983Z,23.83
2019-05-01T19:12:16.271Z,23.90
2019-05-01T19:14:47.214Z,23.97
2019-05-01T19:17:17.508Z,24.03
2019-05-01T19:19:47.727Z,24.10
2019-05-01T19:22:19.680Z,24.17
2019-05-01T19:24:49.998Z,24.25
2019-05-01T19:27:21.250Z,24.30
2019-05-01T19:29:53.064Z,24.35
2019-05-01T19:32:23.713Z,24.41
2019-05-01T19:34:54.429Z,24.48
2019-05-01T19:37:29.268Z,24.57
2019-05-01T19:39:57.185Z,24.63
2019-05-01T19:42:27.418Z,24.70
2019-05-01T19:44:57.929Z,24.76
2019-05-01T19:47:28.286Z,24.83
2019-05-01T19:50:06.613Z,24.89
2019-05-01T19:52:32.320Z,24.96
2019-05-01T19:55:06.332Z,25.04
2019-05-01T19:57:35.415Z,25.11
2019-05-01T20:00:11.027Z,25.21
2019-05-01T20:02:42.400Z,25.27
2019-05-01T20:05:12.959Z,25.34
2019-05-01T20:07:43.244Z,25.41
2019-05-01T20:10:14.650Z,25.48
2019-05-01T20:12:47.646Z,25.56
2019-05-01T20:15:20.075Z,25.61
2019-05-01T20:17:50.921Z,25.67
2019-05-01T20:20:21.225Z,25.74
2019-05-01T20:22:53.320Z,25.79
2019-05-01T20:25:24.624Z,25.87
2019-05-01T20:27:57.343Z,25.92
2019-05-01T20:30:27.419Z,26.01
2019-05-01T20:33:02.127Z,26.07
2019-05-01T20:35:30.346Z,26.14
2019-05-01T20:38:00.960Z,26.23
2019-05-01T20:40:31.872Z,26.29
2019-05-01T20:43:05.900Z,26.36
2019-05-01T20:45:34.865Z,26.44
2019-05-01T20:48:05.238Z,26.52
2019-05-01T20:50:35.819Z,26.59
2019-05-01T20:53:06.565Z,26.67
2019-05-01T20:55:37.058Z,26.75
2019-05-01T20:58:20.849Z,26.82
2019-05-01T21:00:54.795Z,26.89
2019-05-01T21:03:25.321Z,26.98
2019-05-01T21:06:12.746Z,27.06
2019-05-01T21:08:46.065Z,27.12
2019-05-01T21:11:18.319Z,27.21
2019-05-01T21:13:48.894Z,27.27
2019-05-01T21:16:19.560Z,27.36
2019-05-01T21:18:50.227Z,27.42
2019-05-01T21:21:20.508Z,27.49
2019-05-01T21:23:55.303Z,27.58
2019-05-01T21:26:23.448Z,27.63
2019-05-01T21:28:54.135Z,27.70
2019-05-01T21:31:24.788Z,27.77
2019-05-01T21:33:55.441Z,27.83
2019-05-01T21:36:26.453Z,27.92
2019-05-01T21:38:57.103Z,28.00
2019-05-01T21:41:27.419Z,28.11
2019-05-01T21:43:57.976Z,28.17
2019-05-01T21:46:28.601Z,28.28
2019-05-01T21:48:59.307Z,28.36
2019-05-01T21:51:29.961Z,28.45
2019-05-01T21:54:00.655Z,28.53
2019-05-01T21:56:31.019Z,28.59
2019-05-01T21:59:06.642Z,28.68
2019-05-01T22:01:34.728Z,28.76
2019-05-01T22:04:06.680Z,28.85
2019-05-01T22:06:36.949Z,28.92
2019-05-01T22:09:10.499Z,29.00
2019-05-01T22:11:45.171Z,29.09
2019-05-01T22:14:17.110Z,29.15
2019-05-01T22:16:47.684Z,29.23
2019-05-01T22:19:20.267Z,29.29
2019-05-01T22:21:58.876Z,29.39
2019-05-01T22:24:42.723Z,29.45
2019-05-01T22:27:13.180Z,29.53
2019-05-01T22:29:48.884Z,29.59
2019-05-01T22:32:39.283Z,29.67
2019-05-01T22:35:13.659Z,29.73
2019-05-01T22:37:44.949Z,29.82
2019-05-01T22:40:17.252Z,29.89
2019-05-01T22:42:47.536Z,29.96
2019-05-01T22:45:23.131Z,30.03
2019-05-01T22:47:53.448Z,30.09
2019-05-01T22:50:24.738Z,30.15
2019-05-01T22:52:55.392Z,30.21
2019-05-01T22:55:26.761Z,30.27
2019-05-01T22:57:57.214Z,30.34
2019-05-01T23:00:45.388Z,30.41
2019-05-01T23:03:23.339Z,30.46
2019-05-01T23:05:54.016Z,30.53
2019-05-01T23:08:24.642Z,30.60
2019-05-01T23:10:55.289Z,30.65
2019-05-01T23:13:26.019Z,30.73
2019-05-01T23:15:58.045Z,30.81
2019-05-01T23:18:28.379Z,30.88
2019-05-01T23:20:58.586Z,30.93
2019-05-01T23:23:28.984Z,31.01
2019-05-01T23:25:59.214Z,31.04
2019-05-01T23:28:29.427Z,31.12
2019-05-01T23:30:59.655Z,31.19
2019-05-01T23:33:30.592Z,31.26
2019-05-01T23:36:00.940Z,31.33
2019-05-01T23:38:31.140Z,31.40
2019-05-01T23:41:01.368Z,31.47
2019-05-01T23:43:31.705Z,31.56
2019-05-01T23:46:02.016Z,31.64
2019-05-01T23:48:32.234Z,31.72
2019-05-01T23:51:02.475Z,31.81
2019-05-01T23:53:32.681Z,31.89
2019-05-01T23:56:03.267Z,31.96
2019-05-01T23:58:33.542Z,32.04
